createdAt,value
2019-05-21T00:01:56.520Z,38.92
2019-05-21T00:04:28.605Z,41.58
2019-05-21T00:06:57.357Z,36.23
2019-05-21T00:09:26.998Z,40.70
2019-05-21T00:11:56.613Z,33.98
2019-05-21T00:14:26.280Z,31.00
2019-05-21T00:16:55.851Z,36.58
2019-05-21T00:19:25.991Z,32.28
2019-05-21T00:21:55.989Z,39.78
2019-05-21T00:24:25.602Z,30.05
2019-05-21T00:26:55.515Z,34.90
2019-05-21T00:30:00.319Z,31.90
2019-05-21T00:33:05.114Z,32.20
2019-05-21T00:36:10.446Z,35.23
2019-05-21T00:39:15.220Z,33.45
2019-05-21T00:42:04.670Z,34.63
2019-05-21T00:44:37.580Z,35.65
2019-05-21T00:47:09.841Z,40.78
2019-05-21T00:49:39.670Z,44.53
2019-05-21T00:52:09.888Z,49.48
2019-05-21T00:54:39.479Z,53.52
2019-05-21T00:57:09.124Z,51.40
2019-05-21T00:59:38.750Z,53.45
2019-05-21T01:02:08.395Z,48.23
2019-05-21T01:04:38.013Z,50.52
2019-05-21T01:07:07.613Z,45.35
2019-05-21T01:09:37.229Z,43.68
2019-05-21T01:12:06.799Z,38.50
2019-05-21T01:14:36.653Z,39.35
2019-05-21T01:17:06.462Z,41.55
2019-05-21T01:19:36.109Z,39.65
2019-05-21T01:22:06.191Z,44.45
2019-05-21T01:24:36.064Z,38.85
2019-05-21T01:27:05.660Z,40.90
2019-05-21T01:29:36.706Z,36.25
2019-05-21T01:32:06.795Z,40.05
2019-05-21T01:34:36.540Z,37.00
2019-05-21T01:37:06.345Z,37.63
2019-05-21T01:39:35.963Z,36.88
2019-05-21T01:42:05.534Z,40.60
2019-05-21T01:44:35.203Z,40.08
2019-05-21T01:47:04.744Z,33.98
2019-05-21T01:49:34.378Z,34.88
2019-05-21T01:52:03.963Z,34.35
2019-05-21T01:54:33.874Z,36.33
2019-05-21T01:57:03.591Z,36.40
2019-05-21T01:59:33.279Z,29.67
2019-05-21T02:02:03.093Z,34.13
2019-05-21T02:04:32.666Z,38.25
2019-05-21T02:07:02.413Z,36.88
2019-05-21T02:09:35.025Z,28.05
2019-05-21T02:12:04.665Z,32.67
2019-05-21T02:14:34.795Z,29.87
2019-05-21T02:17:04.398Z,33.13
2019-05-21T02:19:33.983Z,32.63
2019-05-21T02:22:03.573Z,31.57
2019-05-21T02:24:33.195Z,25.77
2019-05-21T02:27:03.061Z,29.10
2019-05-21T02:29:32.638Z,25.97
2019-05-21T02:32:02.311Z,28.55
2019-05-21T02:34:32.133Z,28.15
2019-05-21T02:37:06.179Z,30.90
2019-05-21T02:39:34.123Z,27.07
2019-05-21T02:42:03.719Z,32.90
2019-05-21T02:44:33.334Z,26.60
2019-05-21T02:47:02.954Z,29.30
2019-05-21T02:49:32.506Z,29.82
2019-05-21T02:52:02.705Z,24.15
2019-05-21T02:54:40.923Z,29.40
2019-05-21T02:57:04.030Z,24.40
2019-05-21T02:59:33.724Z,23.20
2019-05-21T03:02:09.366Z,25.00
2019-05-21T03:04:38.958Z,35.83
2019-05-21T03:07:20.640Z,32.38
2019-05-21T03:09:50.463Z,26.42
2019-05-21T03:12:20.088Z,25.85
2019-05-21T03:14:49.638Z,25.20
2019-05-21T03:17:19.695Z,29.30
2019-05-21T03:19:49.332Z,27.50
2019-05-21T03:22:18.933Z,25.20
2019-05-21T03:24:48.620Z,28.55
2019-05-21T03:27:18.159Z,23.62
2019-05-21T03:29:47.809Z,27.10
2019-05-21T03:32:17.389Z,29.52
2019-05-21T03:34:47.003Z,28.95
2019-05-21T03:37:16.576Z,25.70
2019-05-21T03:39:46.399Z,27.52
2019-05-21T03:42:15.928Z,24.87
2019-05-21T03:44:59.240Z,21.52
2019-05-21T03:47:17.169Z,27.25
2019-05-21T03:49:46.732Z,25.90
2019-05-21T03:52:16.316Z,22.35
2019-05-21T03:54:45.894Z,30.40
2019-05-21T03:57:16.024Z,25.12
2019-05-21T03:59:45.611Z,24.05
2019-05-21T04:02:15.237Z,24.75
2019-05-21T04:04:44.812Z,24.07
2019-05-21T04:07:14.660Z,30.30
2019-05-21T04:09:44.276Z,34.03
2019-05-21T04:12:13.902Z,22.58
2019-05-21T04:14:47.961Z,21.75
2019-05-21T04:17:36.492Z,18.77
2019-05-21T04:20:06.974Z,22.45
2019-05-21T04:22:39.589Z,23.22
2019-05-21T04:25:09.796Z,23.20
2019-05-21T04:27:39.646Z,23.77
2019-05-21T04:30:11.404Z,23.40
2019-05-21T04:32:40.826Z,23.83
2019-05-21T04:35:10.457Z,26.12
2019-05-21T04:37:40.061Z,26.35
2019-05-21T04:40:09.708Z,23.55
2019-05-21T04:42:39.274Z,22.10
2019-05-21T04:45:09.098Z,23.50
2019-05-21T04:47:38.673Z,24.52
2019-05-21T04:50:08.959Z,22.00
2019-05-21T04:52:38.808Z,22.60
2019-05-21T04:55:08.811Z,23.25
2019-05-21T04:57:38.683Z,21.80
2019-05-21T05:00:08.853Z,27.80
2019-05-21T05:02:38.471Z,24.50
2019-05-21T05:05:08.239Z,26.23
2019-05-21T05:07:38.067Z,24.25
2019-05-21T05:10:08.017Z,30.48
2019-05-21T05:12:37.617Z,25.77
2019-05-21T05:15:07.788Z,27.25
2019-05-21T05:17:37.663Z,24.37
2019-05-21T05:20:07.409Z,24.55
2019-05-21T05:22:36.984Z,27.40
2019-05-21T05:25:07.124Z,27.90
2019-05-21T05:27:36.796Z,24.92
2019-05-21T05:30:07.445Z,33.33
2019-05-21T05:32:37.057Z,26.70
2019-05-21T05:35:06.818Z,30.35
2019-05-21T05:37:43.878Z,29.52
2019-05-21T05:40:08.878Z,31.62
2019-05-21T05:42:39.046Z,31.87
2019-05-21T05:45:09.136Z,39.50
2019-05-21T05:47:38.705Z,36.75
2019-05-21T05:50:10.156Z,39.90
2019-05-21T05:52:39.720Z,39.13
2019-05-21T05:55:09.544Z,41.28
2019-05-21T05:57:39.176Z,43.80
2019-05-21T06:00:11.941Z,41.83
2019-05-21T06:02:41.479Z,47.80
2019-05-21T06:05:11.714Z,43.00
2019-05-21T06:07:41.338Z,43.45
2019-05-21T06:10:11.040Z,47.60
2019-05-21T06:12:40.961Z,48.05
2019-05-21T06:15:10.511Z,40.15
2019-05-21T06:17:40.124Z,46.73
2019-05-21T06:20:10.974Z,48.58
2019-05-21T06:22:40.534Z,48.95
2019-05-21T06:25:11.116Z,51.75
2019-05-21T06:27:41.017Z,48.17
2019-05-21T06:30:11.554Z,50.92
2019-05-21T06:32:41.180Z,48.80
2019-05-21T06:35:11.253Z,47.13
2019-05-21T06:37:41.133Z,50.90
2019-05-21T06:40:11.424Z,49.38
2019-05-21T06:42:41.288Z,48.60
2019-05-21T06:45:11.274Z,50.95
2019-05-21T06:47:41.159Z,51.37
2019-05-21T06:50:10.910Z,57.83
2019-05-21T06:52:40.819Z,53.55
2019-05-21T06:55:10.509Z,55.48
2019-05-21T06:57:40.159Z,52.90
2019-05-21T07:00:10.710Z,57.78
2019-05-21T07:02:40.357Z,57.43
2019-05-21T07:05:10.103Z,53.20
2019-05-21T07:07:39.733Z,49.48
2019-05-21T07:10:09.565Z,49.55
2019-05-21T07:12:39.177Z,48.40
2019-05-21T07:15:08.979Z,49.00
2019-05-21T07:17:38.603Z,53.80
2019-05-21T07:20:08.942Z,50.23
2019-05-21T07:22:38.560Z,51.75
2019-05-21T07:25:08.333Z,55.08
2019-05-21T07:27:38.009Z,50.08
2019-05-21T07:30:07.712Z,49.25
2019-05-21T07:32:37.778Z,52.85
2019-05-21T07:35:07.595Z,53.20
2019-05-21T07:37:37.178Z,56.45
2019-05-21T07:40:07.536Z,50.55
2019-05-21T07:42:37.124Z,49.13
2019-05-21T07:45:07.611Z,50.23
2019-05-21T07:47:37.215Z,50.88
2019-05-21T07:50:07.528Z,53.45
2019-05-21T07:52:37.392Z,51.15
2019-05-21T07:55:07.371Z,53.73
2019-05-21T07:57:36.960Z,53.58
2019-05-21T08:00:07.051Z,50.55
2019-05-21T08:02:36.669Z,46.53
2019-05-21T08:05:06.700Z,53.13
2019-05-21T08:07:36.288Z,50.30
2019-05-21T08:10:07.186Z,45.50
2019-05-21T08:12:39.300Z,47.75
2019-05-21T08:15:08.697Z,51.63
2019-05-21T08:17:38.301Z,62.33
2019-05-21T08:20:10.423Z,56.68
2019-05-21T08:22:40.025Z,47.45
2019-05-21T08:25:14.223Z,49.42
2019-05-21T08:27:41.519Z,47.65
2019-05-21T08:30:11.394Z,44.70
2019-05-21T08:32:41.063Z,56.02
2019-05-21T08:35:10.932Z,48.70
2019-05-21T08:37:40.592Z,44.77
2019-05-21T08:40:10.889Z,45.65
2019-05-21T08:42:40.618Z,44.75
2019-05-21T08:45:10.559Z,41.70
2019-05-21T08:47:40.483Z,45.98
2019-05-21T08:50:10.687Z,45.80
2019-05-21T08:52:40.261Z,45.03
2019-05-21T08:55:10.642Z,42.33
2019-05-21T08:57:40.647Z,41.80
2019-05-21T09:00:14.204Z,40.70
2019-05-21T09:02:43.814Z,41.98
2019-05-21T09:05:14.312Z,38.85
2019-05-21T09:07:44.140Z,44.10
2019-05-21T09:10:14.029Z,41.50
2019-05-21T09:12:43.689Z,41.50
2019-05-21T09:15:13.755Z,40.00
2019-05-21T09:17:43.433Z,40.35
2019-05-21T09:20:14.761Z,41.45
2019-05-21T09:22:44.908Z,41.63
2019-05-21T09:25:15.093Z,39.88
2019-05-21T09:27:45.171Z,41.20
2019-05-21T09:30:16.751Z,37.13
2019-05-21T09:32:46.643Z,38.55
2019-05-21T09:35:16.212Z,35.38
2019-05-21T09:37:46.163Z,36.77
2019-05-21T09:40:16.369Z,35.58
2019-05-21T09:42:46.032Z,37.17
2019-05-21T09:45:16.256Z,34.53
2019-05-21T09:47:45.877Z,37.60
2019-05-21T09:50:16.989Z,36.17
2019-05-21T09:52:46.563Z,34.73
2019-05-21T09:55:16.586Z,35.60
2019-05-21T09:57:58.077Z,33.73
2019-05-21T10:00:45.398Z,35.30
2019-05-21T10:03:16.581Z,36.08
2019-05-21T10:05:46.223Z,33.88
2019-05-21T10:08:16.094Z,31.45
2019-05-21T10:10:45.680Z,32.60
2019-05-21T10:13:15.281Z,32.30
2019-05-21T10:15:45.172Z,29.80
2019-05-21T10:18:14.760Z,29.87
2019-05-21T10:20:44.358Z,28.42
2019-05-21T10:23:14.207Z,30.32
2019-05-21T10:25:44.669Z,30.35
2019-05-21T10:28:14.248Z,27.58
2019-05-21T10:30:43.892Z,27.50
2019-05-21T10:33:13.528Z,27.77
2019-05-21T10:35:43.257Z,28.05
2019-05-21T10:38:13.129Z,27.02
2019-05-21T10:40:42.733Z,27.85
2019-05-21T10:43:12.568Z,27.00
2019-05-21T10:45:42.536Z,28.92
2019-05-21T10:48:12.139Z,26.30
2019-05-21T10:50:42.038Z,28.70
2019-05-21T10:53:12.004Z,30.52
2019-05-21T10:55:41.611Z,28.75
2019-05-21T10:58:11.169Z,29.00
2019-05-21T11:00:41.249Z,28.12
2019-05-21T11:03:17.589Z,27.02
2019-05-21T11:05:50.553Z,29.63
2019-05-21T11:08:24.035Z,28.77
2019-05-21T11:10:51.391Z,26.23
2019-05-21T11:13:21.312Z,28.55
2019-05-21T11:15:50.944Z,25.62
2019-05-21T11:18:20.493Z,25.88
2019-05-21T11:20:50.121Z,27.65
2019-05-21T11:23:19.697Z,29.48
2019-05-21T11:25:49.796Z,29.02
2019-05-21T11:28:19.405Z,29.30
2019-05-21T11:30:49.026Z,29.00
2019-05-21T11:33:19.145Z,28.23
2019-05-21T11:35:48.935Z,29.98
2019-05-21T11:38:18.950Z,27.45
2019-05-21T11:40:51.048Z,28.55
2019-05-21T11:43:20.053Z,25.65
2019-05-21T11:45:49.658Z,27.20
2019-05-21T11:48:19.358Z,26.33
2019-05-21T11:50:48.916Z,30.05
2019-05-21T11:53:18.608Z,28.10
2019-05-21T11:55:48.497Z,29.92
2019-05-21T11:58:18.145Z,26.70
2019-05-21T12:00:48.039Z,24.23
2019-05-21T12:03:17.708Z,25.70
2019-05-21T12:05:47.300Z,27.25
2019-05-21T12:08:17.168Z,25.25
2019-05-21T12:10:46.819Z,26.20
2019-05-21T12:13:20.298Z,27.85
2019-05-21T12:15:47.901Z,26.42
2019-05-21T12:18:17.497Z,24.70
2019-05-21T12:20:47.094Z,23.62
2019-05-21T12:23:16.933Z,21.73
2019-05-21T12:25:46.542Z,23.85
2019-05-21T12:28:16.116Z,22.17
2019-05-21T12:30:45.723Z,22.93
2019-05-21T12:33:15.306Z,21.60
2019-05-21T12:35:45.012Z,20.70
2019-05-21T12:38:14.595Z,21.00
2019-05-21T12:40:44.265Z,21.48
2019-05-21T12:43:14.207Z,22.27
2019-05-21T12:45:43.882Z,23.98
2019-05-21T12:48:13.705Z,23.55
2019-05-21T12:50:43.641Z,22.45
2019-05-21T12:53:16.514Z,22.05
2019-05-21T12:55:44.729Z,21.80
2019-05-21T12:58:14.586Z,21.10
2019-05-21T13:00:44.347Z,19.98
2019-05-21T13:03:14.538Z,21.25
2019-05-21T13:05:44.097Z,19.45
2019-05-21T13:08:13.830Z,21.45
2019-05-21T13:10:43.681Z,19.20
2019-05-21T13:13:13.590Z,18.92
2019-05-21T13:15:43.164Z,18.50
2019-05-21T13:18:12.804Z,18.40
2019-05-21T13:20:42.614Z,18.00
2019-05-21T13:23:12.262Z,17.90
2019-05-21T13:25:42.134Z,18.50
2019-05-21T13:28:12.039Z,18.57
2019-05-21T13:30:41.696Z,20.35
2019-05-21T13:33:11.364Z,20.23
2019-05-21T13:35:41.322Z,19.05
2019-05-21T13:38:13.452Z,19.30
2019-05-21T13:40:43.295Z,18.95
2019-05-21T13:43:13.129Z,19.07
2019-05-21T13:45:42.737Z,18.20
2019-05-21T13:48:12.577Z,21.07
2019-05-21T13:50:42.568Z,18.50
2019-05-21T13:53:12.366Z,21.30
2019-05-21T13:55:42.017Z,20.15
2019-05-21T13:58:11.610Z,20.60
2019-05-21T14:00:45.422Z,20.50
2019-05-21T14:03:14.982Z,20.40
2019-05-21T14:05:44.856Z,21.00
2019-05-21T14:08:15.180Z,20.30
2019-05-21T14:10:45.117Z,20.50
2019-05-21T14:13:15.279Z,20.57
2019-05-21T14:15:44.850Z,21.33
2019-05-21T14:18:14.452Z,20.32
2019-05-21T14:20:44.307Z,21.65
2019-05-21T14:23:13.941Z,23.18
2019-05-21T14:25:43.503Z,22.02
2019-05-21T14:28:13.406Z,22.17
2019-05-21T14:30:42.979Z,23.18
2019-05-21T14:33:12.602Z,25.02
2019-05-21T14:35:42.254Z,24.85
2019-05-21T14:38:11.873Z,25.45
2019-05-21T14:40:41.718Z,24.55
2019-05-21T14:43:11.350Z,26.35
2019-05-21T14:45:40.930Z,24.65
2019-05-21T14:48:10.879Z,26.52
2019-05-21T14:50:40.410Z,26.95
2019-05-21T14:53:10.134Z,26.33
2019-05-21T14:55:39.779Z,25.70
2019-05-21T14:58:09.301Z,25.55
2019-05-21T15:00:39.386Z,24.63
2019-05-21T15:03:24.143Z,24.70
2019-05-21T15:05:40.746Z,25.90
2019-05-21T15:08:10.355Z,25.55
2019-05-21T15:10:48.403Z,24.63
2019-05-21T15:13:11.174Z,25.12
2019-05-21T15:15:40.808Z,22.75
2019-05-21T15:18:14.630Z,23.60
2019-05-21T15:20:49.389Z,23.20
2019-05-21T15:23:18.978Z,25.27
2019-05-21T15:25:48.910Z,23.12
2019-05-21T15:28:18.511Z,24.07
2019-05-21T15:30:48.369Z,22.85
2019-05-21T15:33:18.123Z,23.32
2019-05-21T15:35:47.756Z,23.02
2019-05-21T15:38:17.302Z,23.60
2019-05-21T15:40:46.920Z,24.20
2019-05-21T15:43:16.466Z,25.05
2019-05-21T15:45:46.357Z,24.27
2019-05-21T15:48:15.952Z,23.07
2019-05-21T15:50:45.597Z,23.87
2019-05-21T15:53:15.207Z,23.12
2019-05-21T15:55:45.097Z,23.15
2019-05-21T15:58:14.676Z,22.98
2019-05-21T16:00:44.340Z,22.98
2019-05-21T16:03:14.163Z,22.80
2019-05-21T16:05:43.892Z,22.60
2019-05-21T16:08:13.514Z,23.18
2019-05-21T16:10:43.087Z,22.87
2019-05-21T16:13:13.008Z,23.65
2019-05-21T16:15:42.582Z,22.20
2019-05-21T16:18:12.195Z,22.40
2019-05-21T16:20:42.698Z,24.73
2019-05-21T16:23:12.522Z,24.90
2019-05-21T16:25:42.141Z,22.40
2019-05-21T16:28:11.778Z,23.90
2019-05-21T16:30:41.409Z,24.63
2019-05-21T16:33:11.042Z,25.00
2019-05-21T16:35:40.621Z,24.05
2019-05-21T16:38:10.539Z,23.62
2019-05-21T16:40:40.194Z,23.52
2019-05-21T16:43:09.789Z,23.25
2019-05-21T16:45:39.392Z,23.27
2019-05-21T16:48:09.041Z,24.30
2019-05-21T16:50:38.702Z,23.62
2019-05-21T16:53:08.668Z,23.73
2019-05-21T16:55:38.469Z,23.40
2019-05-21T16:58:08.414Z,22.27
2019-05-21T17:00:38.044Z,24.40
2019-05-21T17:03:07.659Z,23.95
2019-05-21T17:05:37.320Z,22.73
2019-05-21T17:08:06.906Z,23.73
2019-05-21T17:10:36.824Z,23.87
2019-05-21T17:13:06.535Z,23.87
2019-05-21T17:15:36.711Z,26.33
2019-05-21T17:18:06.796Z,27.07
2019-05-21T17:20:36.464Z,26.07
2019-05-21T17:23:06.063Z,29.13
2019-05-21T17:25:36.017Z,29.60
2019-05-21T17:28:05.619Z,26.68
2019-05-21T17:30:35.464Z,27.10
2019-05-21T17:33:05.176Z,29.10
2019-05-21T17:35:34.769Z,29.00
2019-05-21T17:38:04.369Z,30.20
2019-05-21T17:40:34.040Z,27.70
2019-05-21T17:43:03.620Z,28.38
2019-05-21T17:45:33.217Z,28.02
2019-05-21T17:48:02.868Z,27.35
2019-05-21T17:50:32.848Z,27.77
2019-05-21T17:53:02.558Z,26.50
2019-05-21T17:55:32.722Z,26.62
2019-05-21T17:58:02.478Z,25.62
2019-05-21T18:00:46.157Z,27.70
2019-05-21T18:03:16.075Z,29.72
2019-05-21T18:05:46.290Z,28.20
2019-05-21T18:08:17.194Z,27.42
2019-05-21T18:10:47.128Z,27.87
2019-05-21T18:13:18.074Z,27.02
2019-05-21T18:15:47.711Z,29.05
2019-05-21T18:18:17.358Z,29.32
2019-05-21T18:20:46.994Z,31.15
2019-05-21T18:23:16.630Z,30.68
2019-05-21T18:25:46.256Z,30.62
2019-05-21T18:28:16.260Z,32.80
2019-05-21T18:30:46.056Z,33.02
2019-05-21T18:33:15.664Z,29.65
2019-05-21T18:35:45.560Z,28.25
2019-05-21T18:38:15.194Z,30.17
2019-05-21T18:40:44.962Z,29.23
2019-05-21T18:43:14.717Z,29.07
2019-05-21T18:45:44.629Z,31.07
2019-05-21T18:48:14.624Z,31.33
2019-05-21T18:50:44.298Z,30.57
2019-05-21T18:53:13.906Z,30.90
2019-05-21T18:55:43.817Z,30.40
2019-05-21T18:58:16.998Z,31.90
2019-05-21T19:00:45.525Z,29.95
2019-05-21T19:03:15.198Z,28.20
2019-05-21T19:05:46.498Z,30.68
2019-05-21T19:08:16.400Z,28.40
2019-05-21T19:10:46.234Z,28.23
2019-05-21T19:13:15.836Z,29.20
2019-05-21T19:15:45.455Z,27.87
2019-05-21T19:18:15.020Z,27.62
2019-05-21T19:20:44.734Z,27.95
2019-05-21T19:23:14.295Z,30.00
2019-05-21T19:25:44.187Z,28.35
2019-05-21T19:28:14.214Z,29.30
2019-05-21T19:30:44.109Z,28.17
2019-05-21T19:33:13.799Z,27.70
2019-05-21T19:35:43.401Z,27.48
2019-05-21T19:38:13.060Z,28.57
2019-05-21T19:40:44.649Z,28.75
2019-05-21T19:43:14.304Z,29.18
2019-05-21T19:45:44.050Z,28.25
2019-05-21T19:48:13.786Z,29.15
2019-05-21T19:50:43.838Z,30.12
2019-05-21T19:53:14.086Z,30.23
2019-05-21T19:55:44.058Z,30.15
2019-05-21T19:58:13.670Z,27.65
2019-05-21T20:00:50.461Z,28.52
2019-05-21T20:03:20.495Z,29.45
2019-05-21T20:05:50.404Z,28.35
2019-05-21T20:08:20.176Z,28.83
2019-05-21T20:10:49.814Z,28.45
2019-05-21T20:13:31.832Z,26.80
2019-05-21T20:15:51.104Z,27.32
2019-05-21T20:18:21.313Z,27.93
2019-05-21T20:20:51.066Z,27.35
2019-05-21T20:23:21.672Z,26.90
2019-05-21T20:25:56.486Z,28.65
2019-05-21T20:28:23.812Z,29.80
2019-05-21T20:30:54.191Z,27.10
2019-05-21T20:33:24.204Z,28.62
2019-05-21T20:35:55.604Z,26.70
2019-05-21T20:38:25.758Z,27.07
2019-05-21T20:40:55.714Z,26.68
2019-05-21T20:43:25.342Z,26.25
2019-05-21T20:45:54.987Z,24.75
2019-05-21T20:48:26.645Z,27.45
2019-05-21T20:50:56.271Z,26.87
2019-05-21T20:53:25.994Z,26.37
2019-05-21T20:55:56.046Z,26.82
2019-05-21T20:58:26.097Z,27.40
2019-05-21T21:01:01.149Z,27.00
2019-05-21T21:03:31.829Z,27.73
2019-05-21T21:06:01.820Z,26.80
2019-05-21T21:08:33.302Z,26.37
2019-05-21T21:11:03.671Z,26.95
2019-05-21T21:13:33.871Z,25.72
2019-05-21T21:16:04.035Z,26.25
2019-05-21T21:18:34.340Z,28.07
2019-05-21T21:21:04.018Z,28.60
2019-05-21T21:23:34.858Z,28.07
2019-05-21T21:26:05.739Z,26.90
2019-05-21T21:28:35.347Z,27.62
2019-05-21T21:31:06.045Z,27.65
2019-05-21T21:33:36.103Z,26.42
2019-05-21T21:36:05.939Z,27.70
2019-05-21T21:38:37.566Z,27.80
2019-05-21T21:41:08.250Z,28.75
2019-05-21T21:43:37.995Z,27.52
2019-05-21T21:46:07.577Z,26.77
2019-05-21T21:48:37.339Z,30.25
2019-05-21T21:51:08.137Z,28.62
2019-05-21T21:53:39.347Z,28.65
2019-05-21T21:56:10.684Z,27.70
2019-05-21T21:58:40.254Z,30.05
2019-05-21T22:01:43.375Z,28.00
2019-05-21T22:04:16.012Z,29.63
2019-05-21T22:06:47.102Z,29.75
2019-05-21T22:09:23.641Z,31.40
2019-05-21T22:11:55.244Z,30.95
2019-05-21T22:14:24.983Z,31.40
2019-05-21T22:16:56.017Z,31.15
2019-05-21T22:19:25.549Z,31.23
2019-05-21T22:21:55.345Z,31.80
2019-05-21T22:24:25.219Z,32.00
2019-05-21T22:26:55.282Z,29.18
2019-05-21T22:29:25.597Z,30.02
2019-05-21T22:31:55.520Z,30.37
2019-05-21T22:34:25.084Z,27.80
2019-05-21T22:36:54.772Z,29.65
2019-05-21T22:39:26.482Z,28.32
2019-05-21T22:41:56.198Z,29.95
2019-05-21T22:44:25.773Z,29.63
2019-05-21T22:46:55.529Z,26.85
2019-05-21T22:49:25.823Z,29.82
2019-05-21T22:51:55.937Z,28.80
2019-05-21T22:54:25.719Z,27.62
2019-05-21T22:56:55.375Z,27.00
2019-05-21T22:59:25.079Z,27.50
2019-05-21T23:01:56.759Z,28.05
2019-05-21T23:04:26.501Z,27.60
2019-05-21T23:06:56.137Z,26.35
2019-05-21T23:09:25.876Z,26.65
2019-05-21T23:11:55.446Z,24.65
2019-05-21T23:14:25.095Z,27.05
2019-05-21T23:16:54.672Z,27.22
2019-05-21T23:19:25.379Z,25.05
2019-05-21T23:21:56.585Z,26.23
2019-05-21T23:24:27.432Z,29.52
2019-05-21T23:26:57.155Z,28.10
2019-05-21T23:29:27.050Z,28.15
2019-05-21T23:31:56.876Z,27.50
2019-05-21T23:34:26.750Z,27.77
2019-05-21T23:36:57.628Z,29.10
2019-05-21T23:39:30.500Z,27.90
2019-05-21T23:42:01.731Z,31.80
2019-05-21T23:44:31.306Z,28.87
2019-05-21T23:47:01.563Z,29.02
2019-05-21T23:49:31.463Z,28.75
2019-05-21T23:52:03.395Z,28.80
2019-05-21T23:54:33.457Z,26.45
2019-05-21T23:57:04.116Z,28.80
2019-05-21T23:59:33.726Z,31.40
